Time;durP1;ratioP1;P1;durP2;ratioP2;P2;SDS_P1;SDS_P2;PMS_P1;PMS_P2;Temp;Humidity;BMP_temperature;BMP_pressure;BME280_temperature;BME280_humidity;BME280_pressure;Samples;Min_cycle;Max_cycle;Signal;HPM_P1;HPM_P2
2023/08/02 00:01:02;;;;;;;2.10;1.77;;;;;;;;;;5092695;28;20937;-63
2023/08/02 00:03:30;;;;;;;2.13;2.10;;;;;;;;;;5092607;28;20820;-63
2023/08/02 00:05:59;;;;;;;2.10;2.00;;;;;;;;;;5092614;28;20438;-63
2023/08/02 00:08:25;;;;;;;2.70;2.10;;;;;;;;;;5092513;28;20418;-63
2023/08/02 00:10:51;;;;;;;2.00;1.90;;;;;;;;;;5092533;28;20442;-63
2023/08/02 00:13:17;;;;;;;2.17;2.00;;;;;;;;;;5092357;28;20948;-63
2023/08/02 00:15:46;;;;;;;4.60;2.00;;;;;;;;;;5092676;28;20431;-63
2023/08/02 00:18:14;;;;;;;2.43;2.33;;;;;;;;;;5092504;28;20862;-63
2023/08/02 00:20:40;;;;;;;2.00;1.90;;;;;;;;;;5092267;28;20942;-63
2023/08/02 00:23:07;;;;;;;1.83;1.83;;;;;;;;;;5092036;28;20432;-63
2023/08/02 00:25:32;;;;;;;3.47;2.20;;;;;;;;;;5092450;28;20411;-63
2023/08/02 00:28:01;;;;;;;2.90;1.70;;;;;;;;;;5092065;28;20503;-63
2023/08/02 00:30:29;;;;;;;6.80;1.80;;;;;;;;;;5092329;28;20478;-63
2023/08/02 00:32:55;;;;;;;1.97;1.87;;;;;;;;;;5092311;28;20514;-63
2023/08/02 00:35:21;;;;;;;2.40;2.30;;;;;;;;;;5092557;28;20527;-63
2023/08/02 00:37:47;;;;;;;3.70;2.37;;;;;;;;;;5092782;28;20493;-63
2023/08/02 00:40:14;;;;;;;4.23;1.80;;;;;;;;;;5092416;28;20470;-63
2023/08/02 00:42:40;;;;;;;2.80;2.00;;;;;;;;;;5095698;28;20415;-63
2023/08/02 00:45:06;;;;;;;7.10;2.40;;;;;;;;;;5096517;28;20440;-63
2023/08/02 00:47:32;;;;;;;2.80;1.90;;;;;;;;;;5096258;28;20909;-63
2023/08/02 00:49:59;;;;;;;1.70;1.70;;;;;;;;;;5096420;28;20422;-63
2023/08/02 00:52:26;;;;;;;2.20;1.90;;;;;;;;;;5096507;28;20414;-63
2023/08/02 00:54:52;;;;;;;6.37;2.03;;;;;;;;;;5095376;28;20524;-63
2023/08/02 00:57:18;;;;;;;2.00;1.90;;;;;;;;;;5096161;28;20917;-63
2023/08/02 00:59:44;;;;;;;4.23;2.00;;;;;;;;;;5094821;28;20509;-63
2023/08/02 01:02:10;;;;;;;3.43;2.10;;;;;;;;;;5096206;28;20809;-63
2023/08/02 01:04:37;;;;;;;1.73;1.63;;;;;;;;;;5096057;28;20436;-63
2023/08/02 01:07:05;;;;;;;1.93;1.83;;;;;;;;;;5096002;28;20508;-63
2023/08/02 01:09:36;;;;;;;5.03;2.37;;;;;;;;;;5095946;28;20446;-63
2023/08/02 01:12:03;;;;;;;2.10;2.00;;;;;;;;;;5095838;28;20432;-63
2023/08/02 01:14:30;;;;;;;2.13;2.03;;;;;;;;;;5095557;28;20500;-63
2023/08/02 01:16:56;;;;;;;2.17;2.10;;;;;;;;;;5095867;28;20399;-63
2023/08/02 01:19:25;;;;;;;2.40;2.20;;;;;;;;;;5094566;28;20441;-63
2023/08/02 01:21:51;;;;;;;5.67;2.60;;;;;;;;;;5095611;28;20424;-63
2023/08/02 01:24:17;;;;;;;1.93;1.90;;;;;;;;;;5094328;28;20447;-63
2023/08/02 01:26:46;;;;;;;1.90;1.80;;;;;;;;;;5095919;28;20452;-63
2023/08/02 01:29:13;;;;;;;2.00;1.90;;;;;;;;;;5095433;28;20423;-63
2023/08/02 01:31:43;;;;;;;3.03;1.77;;;;;;;;;;5095602;28;20398;-63
2023/08/02 01:34:09;;;;;;;2.37;2.20;;;;;;;;;;5094094;28;21075;-63
2023/08/02 01:36:35;;;;;;;2.37;2.07;;;;;;;;;;5095294;28;20421;-63
2023/08/02 01:39:01;;;;;;;2.80;2.60;;;;;;;;;;5095556;28;20426;-63
2023/08/02 01:41:27;;;;;;;2.17;2.07;;;;;;;;;;5095361;28;20446;-63
2023/08/02 01:43:58;;;;;;;2.00;2.00;;;;;;;;;;5095257;28;20423;-63
2023/08/02 01:46:24;;;;;;;2.83;2.63;;;;;;;;;;5095221;28;20963;-63
2023/08/02 01:48:50;;;;;;;2.97;2.30;;;;;;;;;;5095187;28;20423;-63
2023/08/02 01:51:18;;;;;;;5.93;2.30;;;;;;;;;;5095094;28;20851;-63
2023/08/02 01:53:44;;;;;;;2.90;2.67;;;;;;;;;;5092674;28;20484;-63
2023/08/02 01:56:10;;;;;;;2.20;2.20;;;;;;;;;;5095154;28;20437;-63
2023/08/02 01:58:36;;;;;;;2.37;2.27;;;;;;;;;;5095092;28;20445;-63
2023/08/02 02:01:02;;;;;;;5.13;2.30;;;;;;;;;;5093671;28;20419;-63
2023/08/02 02:03:28;;;;;;;4.63;2.50;;;;;;;;;;5093194;28;20806;-63
2023/08/02 02:05:55;;;;;;;3.10;2.80;;;;;;;;;;5092770;28;20419;-65
2023/08/02 02:08:23;;;;;;;3.93;2.97;;;;;;;;;;5093025;28;20466;-58
2023/08/02 02:10:50;;;;;;;2.97;2.77;;;;;;;;;;5094419;28;20448;-58
2023/08/02 02:13:17;;;;;;;2.80;2.60;;;;;;;;;;5094556;28;20513;-58
2023/08/02 02:15:43;;;;;;;2.53;2.33;;;;;;;;;;5094402;28;20918;-58
2023/08/02 02:18:09;;;;;;;2.57;2.23;;;;;;;;;;5094276;28;20409;-58
2023/08/02 02:20:37;;;;;;;4.70;2.50;;;;;;;;;;5094408;28;20441;-58
2023/08/02 02:23:03;;;;;;;2.93;2.37;;;;;;;;;;5094770;28;20424;-58
2023/08/02 02:25:32;;;;;;;9.30;2.90;;;;;;;;;;5094328;28;20993;-58
2023/08/02 02:27:58;;;;;;;3.00;2.80;;;;;;;;;;5093228;28;20486;-57
2023/08/02 02:30:26;;;;;;;3.00;2.90;;;;;;;;;;5094276;28;20535;-57
2023/08/02 02:32:52;;;;;;;2.80;2.70;;;;;;;;;;5094647;28;20871;-58
2023/08/02 02:35:18;;;;;;;5.47;3.27;;;;;;;;;;5094333;28;20499;-58
2023/08/02 02:37:44;;;;;;;2.73;2.60;;;;;;;;;;5094165;28;20443;-57
2023/08/02 02:40:10;;;;;;;4.47;2.97;;;;;;;;;;5093961;28;20419;-56
2023/08/02 02:42:40;;;;;;;2.70;2.50;;;;;;;;;;5094034;28;20916;-56
2023/08/02 02:45:07;;;;;;;3.00;2.80;;;;;;;;;;5093972;28;20425;-57
2023/08/02 02:47:33;;;;;;;6.10;3.20;;;;;;;;;;5092643;28;20450;-56
2023/08/02 02:50:02;;;;;;;4.00;3.53;;;;;;;;;;5093829;28;20418;-58
2023/08/02 02:52:28;;;;;;;3.37;3.17;;;;;;;;;;5093559;28;20415;-56
2023/08/02 02:54:54;;;;;;;3.77;3.57;;;;;;;;;;5093827;28;20460;-57
2023/08/02 02:57:20;;;;;;;3.60;3.40;;;;;;;;;;5093307;28;20422;-57
2023/08/02 02:59:46;;;;;;;3.57;3.37;;;;;;;;;;5093681;28;20981;-57
2023/08/02 03:02:12;;;;;;;4.10;3.87;;;;;;;;;;5093487;28;20562;-57
2023/08/02 03:04:40;;;;;;;4.17;3.47;;;;;;;;;;5093243;28;20444;-55
2023/08/02 03:07:06;;;;;;;4.83;4.30;;;;;;;;;;5093412;28;20417;-55
2023/08/02 03:09:32;;;;;;;4.57;4.27;;;;;;;;;;5093474;28;20516;-55
2023/08/02 03:12:00;;;;;;;6.60;4.30;;;;;;;;;;5092778;28;20442;-57
2023/08/02 03:14:27;;;;;;;3.87;3.67;;;;;;;;;;5093392;28;20451;-55
2023/08/02 03:16:53;;;;;;;5.03;4.73;;;;;;;;;;5093427;28;20977;-56
2023/08/02 03:19:19;;;;;;;5.03;4.63;;;;;;;;;;5093255;28;20484;-56
2023/08/02 03:21:45;;;;;;;5.97;4.90;;;;;;;;;;5093262;28;20900;-57
2023/08/02 03:24:13;;;;;;;4.47;4.00;;;;;;;;;;5093466;28;20418;-56
2023/08/02 03:26:39;;;;;;;5.57;4.23;;;;;;;;;;5093527;28;20932;-56
2023/08/02 03:29:10;;;;;;;5.07;4.60;;;;;;;;;;5093158;28;20908;-57
2023/08/02 03:31:36;;;;;;;4.40;4.10;;;;;;;;;;5093260;28;20425;-57
2023/08/02 03:34:02;;;;;;;5.17;4.77;;;;;;;;;;5093122;28;20460;-56
2023/08/02 03:36:28;;;;;;;5.37;4.63;;;;;;;;;;5093138;28;20420;-56
2023/08/02 03:38:54;;;;;;;6.10;5.07;;;;;;;;;;5093067;28;20410;-55
2023/08/02 03:41:20;;;;;;;5.77;5.30;;;;;;;;;;5093016;28;20418;-57
2023/08/02 03:43:48;;;;;;;6.07;4.87;;;;;;;;;;5092286;28;20521;-57
2023/08/02 03:46:17;;;;;;;5.50;3.93;;;;;;;;;;5092720;28;20715;-57
2023/08/02 03:48:42;;;;;;;5.00;4.57;;;;;;;;;;5092891;28;20460;-57
2023/08/02 03:51:08;;;;;;;8.50;5.03;;;;;;;;;;5092751;28;20420;-57
2023/08/02 03:53:34;;;;;;;5.40;4.47;;;;;;;;;;5092486;28;20455;-57
2023/08/02 03:56:00;;;;;;;9.00;5.00;;;;;;;;;;5092895;28;20896;-57
2023/08/02 03:58:27;;;;;;;5.60;5.10;;;;;;;;;;5092651;28;20440;-56
2023/08/02 04:00:53;;;;;;;4.63;4.23;;;;;;;;;;5092516;28;20424;-55
2023/08/02 04:03:21;;;;;;;6.87;5.73;;;;;;;;;;5092391;28;20434;-57
2023/08/02 04:05:47;;;;;;;5.77;4.97;;;;;;;;;;5092525;28;20414;-55
2023/08/02 04:08:13;;;;;;;6.83;4.67;;;;;;;;;;5092483;28;20418;-57
2023/08/02 04:10:39;;;;;;;4.87;4.20;;;;;;;;;;5092480;28;20797;-58
2023/08/02 04:13:05;;;;;;;7.63;4.67;;;;;;;;;;5092394;28;20544;-56
2023/08/02 04:15:31;;;;;;;6.90;6.33;;;;;;;;;;5091974;28;20409;-57
2023/08/02 04:17:58;;;;;;;12.33;11.03;;;;;;;;;;5092081;28;20446;-57
2023/08/02 04:20:26;;;;;;;5.33;4.23;;;;;;;;;;5092242;28;20454;-57
2023/08/02 04:22:54;;;;;;;4.63;4.43;;;;;;;;;;5092442;28;20459;-56
2023/08/02 04:25:20;;;;;;;5.00;4.60;;;;;;;;;;5092326;28;20460;-57
2023/08/02 04:27:46;;;;;;;4.93;4.50;;;;;;;;;;5092061;28;20851;-58
2023/08/02 04:30:14;;;;;;;6.57;4.20;;;;;;;;;;5092305;28;20409;-57
2023/08/02 04:32:40;;;;;;;8.07;4.60;;;;;;;;;;5091940;28;20840;-57
2023/08/02 04:35:07;;;;;;;7.07;6.30;;;;;;;;;;5091557;28;20455;-57
2023/08/02 04:37:32;;;;;;;5.80;4.23;;;;;;;;;;5092085;28;20417;-57
2023/08/02 04:39:58;;;;;;;4.40;3.93;;;;;;;;;;5092230;28;20409;-57
2023/08/02 04:42:27;;;;;;;5.27;4.77;;;;;;;;;;5092043;28;20839;-55
2023/08/02 04:44:53;;;;;;;6.00;4.00;;;;;;;;;;5091974;28;20462;-57
2023/08/02 04:47:20;;;;;;;4.03;3.83;;;;;;;;;;5092077;28;20512;-57
2023/08/02 04:49:46;;;;;;;4.10;3.83;;;;;;;;;;5092068;28;20417;-57
2023/08/02 04:52:12;;;;;;;4.63;4.33;;;;;;;;;;5092099;28;20900;-57
2023/08/02 04:54:40;;;;;;;5.10;4.80;;;;;;;;;;5091961;28;20813;-58
2023/08/02 04:57:06;;;;;;;5.23;4.27;;;;;;;;;;5092148;28;20878;-57
2023/08/02 04:59:32;;;;;;;33.07;24.90;;;;;;;;;;5091812;28;20407;-55
2023/08/02 05:01:58;;;;;;;5.50;4.00;;;;;;;;;;5091936;28;20434;-57
2023/08/02 05:04:24;;;;;;;4.47;4.23;;;;;;;;;;5092226;28;20413;-58
2023/08/02 05:06:50;;;;;;;4.33;4.03;;;;;;;;;;5090474;28;20484;-57
2023/08/02 05:09:17;;;;;;;3.87;3.70;;;;;;;;;;5090640;28;20436;-57
2023/08/02 05:11:43;;;;;;;4.70;4.50;;;;;;;;;;5091651;28;20456;-57
2023/08/02 05:14:09;;;;;;;4.30;4.10;;;;;;;;;;5092129;28;20463;-57
2023/08/02 05:16:36;;;;;;;4.80;4.37;;;;;;;;;;5091707;28;20421;-57
2023/08/02 05:19:03;;;;;;;4.50;4.00;;;;;;;;;;5091774;28;20496;-57
2023/08/02 05:21:31;;;;;;;5.37;5.00;;;;;;;;;;5091799;28;20417;-57
2023/08/02 05:23:57;;;;;;;4.93;4.50;;;;;;;;;;5091482;28;20510;-57
2023/08/02 05:26:23;;;;;;;4.20;3.90;;;;;;;;;;5091710;28;20914;-57
2023/08/02 05:28:52;;;;;;;5.03;4.43;;;;;;;;;;5095012;28;20509;-58
2023/08/02 05:31:18;;;;;;;4.77;4.40;;;;;;;;;;5095546;28;20422;-58
2023/08/02 05:33:44;;;;;;;4.23;3.83;;;;;;;;;;5095219;28;20457;-56
2023/08/02 05:36:14;;;;;;;4.13;3.73;;;;;;;;;;5095410;28;20913;-55
2023/08/02 05:38:43;;;;;;;4.03;3.43;;;;;;;;;;5095779;28;20397;-57
2023/08/02 05:41:11;;;;;;;5.27;4.57;;;;;;;;;;5095069;28;20441;-57
2023/08/02 05:43:41;;;;;;;4.63;4.33;;;;;;;;;;5095301;28;20435;-57
2023/08/02 05:46:07;;;;;;;6.10;4.50;;;;;;;;;;5095163;28;20931;-57
2023/08/02 05:48:33;;;;;;;5.50;4.07;;;;;;;;;;5095293;28;20421;-57
2023/08/02 05:50:59;;;;;;;3.97;3.67;;;;;;;;;;5094917;28;20500;-57
2023/08/02 05:53:27;;;;;;;4.30;4.17;;;;;;;;;;5095114;28;20958;-57
2023/08/02 05:55:58;;;;;;;3.90;3.70;;;;;;;;;;5093672;28;20479;-57
2023/08/02 05:58:24;;;;;;;4.53;4.13;;;;;;;;;;5094959;28;20533;-57
2023/08/02 06:00:50;;;;;;;4.70;4.30;;;;;;;;;;5095000;28;20488;-57
2023/08/02 06:03:16;;;;;;;5.00;4.70;;;;;;;;;;5094881;28;20422;-57
2023/08/02 06:05:42;;;;;;;4.10;3.90;;;;;;;;;;5093370;28;20422;-57
2023/08/02 06:08:08;;;;;;;4.77;4.20;;;;;;;;;;5094877;28;20483;-57
2023/08/02 06:10:34;;;;;;;5.13;4.73;;;;;;;;;;5094649;28;20410;-57
2023/08/02 06:13:00;;;;;;;4.30;4.17;;;;;;;;;;5094013;28;20525;-56
2023/08/02 06:15:27;;;;;;;6.23;4.50;;;;;;;;;;5093127;28;20441;-56
2023/08/02 06:17:53;;;;;;;4.80;4.50;;;;;;;;;;5093087;28;20889;-56
2023/08/02 06:20:19;;;;;;;6.60;4.77;;;;;;;;;;5093751;28;20475;-57
2023/08/02 06:22:47;;;;;;;5.70;4.80;;;;;;;;;;5094511;28;20407;-56
2023/08/02 06:25:13;;;;;;;5.37;4.97;;;;;;;;;;5094273;28;20429;-57
2023/08/02 06:27:39;;;;;;;6.50;4.40;;;;;;;;;;5094370;28;20433;-57
2023/08/02 06:30:05;;;;;;;4.50;4.27;;;;;;;;;;5094188;28;20919;-55
2023/08/02 06:32:31;;;;;;;4.20;3.90;;;;;;;;;;5093235;28;20818;-57
2023/08/02 06:34:57;;;;;;;4.47;4.10;;;;;;;;;;5093232;28;20559;-57
2023/08/02 06:37:23;;;;;;;4.83;4.43;;;;;;;;;;5093632;28;20773;-57
2023/08/02 06:39:49;;;;;;;3.73;3.47;;;;;;;;;;5093269;28;20440;-56
2023/08/02 06:42:15;;;;;;;3.40;3.23;;;;;;;;;;5093435;28;20418;-57
2023/08/02 06:44:44;;;;;;;4.17;3.87;;;;;;;;;;5093949;28;20406;-56
2023/08/02 06:47:12;;;;;;;3.80;3.60;;;;;;;;;;5092946;28;20444;-56
2023/08/02 06:49:38;;;;;;;3.97;3.87;;;;;;;;;;5093140;28;20429;-57
2023/08/02 06:52:06;;;;;;;4.20;3.90;;;;;;;;;;5093641;28;20448;-56
2023/08/02 06:54:32;;;;;;;3.23;3.03;;;;;;;;;;5093406;28;20516;-57
2023/08/02 06:56:58;;;;;;;3.47;2.97;;;;;;;;;;5093485;28;20796;-57
2023/08/02 06:59:24;;;;;;;4.10;3.70;;;;;;;;;;5093521;28;20407;-58
2023/08/02 07:01:50;;;;;;;3.50;3.40;;;;;;;;;;5093469;28;20415;-56
2023/08/02 07:04:16;;;;;;;4.10;3.80;;;;;;;;;;5093523;28;20937;-57
2023/08/02 07:06:42;;;;;;;3.50;3.20;;;;;;;;;;5093345;28;20410;-56
2023/08/02 07:09:08;;;;;;;3.57;3.47;;;;;;;;;;5093202;28;20444;-55
2023/08/02 07:11:34;;;;;;;3.27;3.17;;;;;;;;;;5092799;28;20439;-56
2023/08/02 07:14:00;;;;;;;3.67;3.47;;;;;;;;;;5092897;28;20922;-57
2023/08/02 07:16:26;;;;;;;3.20;3.00;;;;;;;;;;5092969;28;20419;-57
2023/08/02 07:18:54;;;;;;;4.20;3.80;;;;;;;;;;5093253;28;20483;-57
2023/08/02 07:21:20;;;;;;;4.13;3.77;;;;;;;;;;5092336;28;20424;-57
2023/08/02 07:23:46;;;;;;;4.30;3.90;;;;;;;;;;5092675;28;20439;-56
2023/08/02 07:26:12;;;;;;;3.57;3.37;;;;;;;;;;5092427;28;20462;-57
2023/08/02 07:28:40;;;;;;;3.70;3.40;;;;;;;;;;5091523;28;20416;-56
2023/08/02 07:31:10;;;;;;;3.90;3.70;;;;;;;;;;5093213;28;20530;-57
2023/08/02 07:33:36;;;;;;;5.60;4.03;;;;;;;;;;5092748;28;20521;-58
2023/08/02 07:36:03;;;;;;;3.23;3.00;;;;;;;;;;5092671;28;20406;-56
2023/08/02 07:38:29;;;;;;;3.60;3.50;;;;;;;;;;5092427;28;20806;-58
2023/08/02 07:40:56;;;;;;;3.40;3.30;;;;;;;;;;5091952;28;20414;-55
2023/08/02 07:43:22;;;;;;;3.77;3.63;;;;;;;;;;5092770;28;20459;-57
2023/08/02 07:45:48;;;;;;;3.97;3.57;;;;;;;;;;5091683;28;20830;-57
2023/08/02 07:48:14;;;;;;;4.10;3.90;;;;;;;;;;5092218;28;20523;-55
2023/08/02 07:50:40;;;;;;;3.93;3.67;;;;;;;;;;5091864;28;20887;-55
2023/08/02 07:53:07;;;;;;;5.60;4.23;;;;;;;;;;5092373;28;20439;-55
2023/08/02 07:55:33;;;;;;;5.33;4.00;;;;;;;;;;5092554;28;20415;-57
2023/08/02 07:57:59;;;;;;;5.27;4.10;;;;;;;;;;5092564;28;20462;-55
2023/08/02 08:00:25;;;;;;;4.17;3.90;;;;;;;;;;5092409;28;20494;-57
2023/08/02 08:02:53;;;;;;;4.10;4.00;;;;;;;;;;5092395;28;20422;-56
2023/08/02 08:05:19;;;;;;;3.97;3.70;;;;;;;;;;5092339;28;20426;-56
2023/08/02 08:07:45;;;;;;;4.07;3.73;;;;;;;;;;5092191;28;20419;-56
2023/08/02 08:10:11;;;;;;;4.17;3.97;;;;;;;;;;5092130;28;20907;-56
2023/08/02 08:12:40;;;;;;;4.20;3.83;;;;;;;;;;5091821;28;20449;-55
2023/08/02 08:15:07;;;;;;;5.77;4.60;;;;;;;;;;5090671;28;20476;-56
2023/08/02 08:17:33;;;;;;;3.67;3.40;;;;;;;;;;5092093;28;20447;-56
2023/08/02 08:20:01;;;;;;;4.53;3.73;;;;;;;;;;5092545;28;20464;-57
2023/08/02 08:22:30;;;;;;;4.03;3.77;;;;;;;;;;5092653;28;20932;-57
2023/08/02 08:24:56;;;;;;;3.90;3.70;;;;;;;;;;5092862;28;20498;-57
2023/08/02 08:27:24;;;;;;;3.90;3.70;;;;;;;;;;5091492;28;20413;-57
2023/08/02 08:29:50;;;;;;;3.87;3.67;;;;;;;;;;5092756;28;20427;-55
2023/08/02 08:32:16;;;;;;;3.83;3.70;;;;;;;;;;5092941;28;20426;-55
2023/08/02 08:34:43;;;;;;;4.13;3.93;;;;;;;;;;5092551;28;20459;-55
2023/08/02 08:37:09;;;;;;;3.50;3.30;;;;;;;;;;5092670;28;20422;-56
2023/08/02 08:39:38;;;;;;;3.67;3.37;;;;;;;;;;5092647;28;20877;-57
2023/08/02 08:42:08;;;;;;;3.67;3.47;;;;;;;;;;5092585;28;20411;-55
2023/08/02 08:44:37;;;;;;;4.30;4.00;;;;;;;;;;5091226;28;20444;-56
2023/08/02 08:47:04;;;;;;;4.30;4.07;;;;;;;;;;5092568;28;20419;-57
2023/08/02 08:49:30;;;;;;;4.03;3.50;;;;;;;;;;5092621;28;20879;-57
2023/08/02 08:51:58;;;;;;;4.73;3.80;;;;;;;;;;5092462;28;20442;-57
2023/08/02 08:54:28;;;;;;;3.97;3.67;;;;;;;;;;5092469;28;20459;-57
2023/08/02 08:56:55;;;;;;;6.07;3.80;;;;;;;;;;5092253;28;20484;-58
2023/08/02 08:59:21;;;;;;;4.47;3.60;;;;;;;;;;5092497;28;20437;-58
2023/08/02 09:01:47;;;;;;;3.60;3.40;;;;;;;;;;5092551;28;20459;-58
2023/08/02 09:04:13;;;;;;;4.50;3.73;;;;;;;;;;5096519;28;20414;-58
2023/08/02 09:06:39;;;;;;;8.33;4.03;;;;;;;;;;5096346;28;20448;-57
2023/08/02 09:09:05;;;;;;;3.47;3.20;;;;;;;;;;5095261;28;20842;-56
2023/08/02 09:11:31;;;;;;;4.27;4.00;;;;;;;;;;5094583;28;20463;-58
2023/08/02 09:14:11;;;;;;;4.00;3.80;;;;;;;;;;5094928;28;20506;-58
2023/08/02 09:16:39;;;;;;;3.30;3.20;;;;;;;;;;5096114;28;20958;-56
2023/08/02 09:19:21;;;;;;;3.93;3.50;;;;;;;;;;5096643;28;20402;-58
2023/08/02 09:21:49;;;;;;;8.73;4.07;;;;;;;;;;5096130;28;20410;-58
2023/08/02 09:24:15;;;;;;;4.00;3.80;;;;;;;;;;5096041;28;20419;-57
2023/08/02 09:26:43;;;;;;;4.07;3.73;;;;;;;;;;5095912;28;20928;-57
2023/08/02 09:29:09;;;;;;;3.80;3.70;;;;;;;;;;5096009;28;20422;-57
2023/08/02 09:31:36;;;;;;;4.37;4.17;;;;;;;;;;5096005;28;20492;-58
2023/08/02 09:34:03;;;;;;;3.87;3.70;;;;;;;;;;5095860;28;20514;-58
2023/08/02 09:36:34;;;;;;;4.23;4.03;;;;;;;;;;5095960;28;20424;-58
2023/08/02 09:39:04;;;;;;;3.60;3.40;;;;;;;;;;5095866;28;20870;-57
2023/08/02 09:41:30;;;;;;;4.10;4.00;;;;;;;;;;5095816;28;20432;-58
2023/08/02 09:43:56;;;;;;;3.73;3.60;;;;;;;;;;5095952;28;20428;-58
2023/08/02 09:46:24;;;;;;;12.63;4.50;;;;;;;;;;5095831;28;20459;-57
2023/08/02 09:48:50;;;;;;;3.60;3.40;;;;;;;;;;5095572;28;20428;-56
2023/08/02 09:51:18;;;;;;;4.80;4.20;;;;;;;;;;5095588;28;20436;-58
2023/08/02 09:53:55;;;;;;;4.47;4.17;;;;;;;;;;5095485;28;20496;-56
2023/08/02 09:56:23;;;;;;;4.30;4.00;;;;;;;;;;5095552;28;20466;-58
2023/08/02 09:58:50;;;;;;;4.50;4.30;;;;;;;;;;5094258;28;20496;-59
2023/08/02 10:01:17;;;;;;;4.60;4.37;;;;;;;;;;5095280;28;20435;-58
2023/08/02 10:03:43;;;;;;;4.73;4.40;;;;;;;;;;5095250;28;20427;-58
2023/08/02 10:06:09;;;;;;;4.57;4.20;;;;;;;;;;5095333;28;20407;-57
2023/08/02 10:08:36;;;;;;;4.33;4.20;;;;;;;;;;5095122;28;20421;-58
2023/08/02 10:11:03;;;;;;;4.17;3.77;;;;;;;;;;5095068;28;20803;-58
2023/08/02 10:13:31;;;;;;;5.13;4.23;;;;;;;;;;5094320;28;20413;-58
2023/08/02 10:15:58;;;;;;;4.20;3.80;;;;;;;;;;5094898;28;20398;-58
2023/08/02 10:18:25;;;;;;;4.00;3.80;;;;;;;;;;5095260;28;20433;-58
2023/08/02 10:20:51;;;;;;;4.60;4.20;;;;;;;;;;5094980;28;20504;-58
2023/08/02 10:23:17;;;;;;;4.70;4.27;;;;;;;;;;5095073;28;20409;-57
2023/08/02 10:25:43;;;;;;;4.13;3.93;;;;;;;;;;5094780;28;20922;-58
2023/08/02 10:28:12;;;;;;;5.00;4.60;;;;;;;;;;5095085;28;20500;-58
2023/08/02 10:30:39;;;;;;;4.57;4.27;;;;;;;;;;5094862;28;20492;-58
2023/08/02 10:33:14;;;;;;;4.53;4.20;;;;;;;;;;5094733;28;20558;-56
2023/08/02 10:35:59;;;;;;;4.93;4.63;;;;;;;;;;5094704;28;20437;-58
2023/08/02 10:38:46;;;;;;;4.60;4.30;;;;;;;;;;5094954;28;20487;-58
2023/08/02 10:41:14;;;;;;;4.80;4.40;;;;;;;;;;5094690;28;20853;-58
2023/08/02 10:43:58;;;;;;;4.90;4.30;;;;;;;;;;5094593;28;20913;-58
2023/08/02 10:46:27;;;;;;;4.20;3.70;;;;;;;;;;5094521;28;20413;-58
2023/08/02 10:48:54;;;;;;;5.40;3.40;;;;;;;;;;5094488;28;20767;-56
2023/08/02 10:51:33;;;;;;;4.00;3.87;;;;;;;;;;5094285;28;20417;-58
2023/08/02 10:54:15;;;;;;;4.33;4.13;;;;;;;;;;5094339;28;20458;-57
2023/08/02 10:56:55;;;;;;;5.93;3.63;;;;;;;;;;5094195;28;20408;-58
2023/08/02 10:59:24;;;;;;;3.83;3.63;;;;;;;;;;5094118;28;20443;-57
2023/08/02 11:01:57;;;;;;;4.77;3.87;;;;;;;;;;5094249;28;20392;-56
2023/08/02 11:04:29;;;;;;;3.50;3.30;;;;;;;;;;5094284;28;20396;-58
2023/08/02 11:06:55;;;;;;;6.97;3.50;;;;;;;;;;5094119;28;20590;-56
2023/08/02 11:09:31;;;;;;;3.73;3.53;;;;;;;;;;5094076;28;20409;-58
2023/08/02 11:12:08;;;;;;;3.23;3.13;;;;;;;;;;5093817;28;20802;-58
2023/08/02 11:14:34;;;;;;;3.13;3.03;;;;;;;;;;5093925;28;20460;-58
2023/08/02 11:17:00;;;;;;;3.03;2.83;;;;;;;;;;5093844;28;20566;-57
2023/08/02 11:19:28;;;;;;;3.10;3.00;;;;;;;;;;5093956;28;20385;-58
2023/08/02 11:21:55;;;;;;;4.40;3.57;;;;;;;;;;5093852;28;20447;-57
2023/08/02 11:24:21;;;;;;;3.70;3.60;;;;;;;;;;5092601;28;20437;-58
2023/08/02 11:26:54;;;;;;;3.33;3.23;;;;;;;;;;5093720;28;20448;-58
2023/08/02 11:29:20;;;;;;;3.67;2.60;;;;;;;;;;5093756;28;20455;-58
2023/08/02 11:31:46;;;;;;;3.00;2.90;;;;;;;;;;5093685;28;20420;-59
2023/08/02 11:34:17;;;;;;;3.30;2.97;;;;;;;;;;5093464;28;20512;-58
2023/08/02 11:36:43;;;;;;;2.90;2.70;;;;;;;;;;5093534;28;20420;-59
2023/08/02 11:39:13;;;;;;;2.67;2.57;;;;;;;;;;5093542;28;20408;-58
2023/08/02 11:41:42;;;;;;;8.90;2.97;;;;;;;;;;5093439;28;20411;-58
2023/08/02 11:44:14;;;;;;;3.10;2.80;;;;;;;;;;5093222;28;20975;-59
2023/08/02 11:46:40;;;;;;;4.57;2.70;;;;;;;;;;5093254;28;20411;-59
2023/08/02 11:49:09;;;;;;;3.47;2.70;;;;;;;;;;5093223;28;20436;-57
2023/08/02 11:51:41;;;;;;;4.17;2.90;;;;;;;;;;5091983;28;20443;-58
2023/08/02 11:54:08;;;;;;;3.70;2.73;;;;;;;;;;5093227;28;20487;-58
2023/08/02 11:56:34;;;;;;;6.20;2.13;;;;;;;;;;5092010;28;20417;-58
2023/08/02 11:59:03;;;;;;;2.33;2.13;;;;;;;;;;5093486;28;20857;-59
2023/08/02 12:01:29;;;;;;;2.50;2.00;;;;;;;;;;5093199;28;20420;-58
2023/08/02 12:03:59;;;;;;;2.40;2.30;;;;;;;;;;5093092;28;20441;-57
2023/08/02 12:06:27;;;;;;;3.50;2.23;;;;;;;;;;5092952;28;20508;-58
2023/08/02 12:08:57;;;;;;;2.33;2.20;;;;;;;;;;5092972;28;20516;-59
2023/08/02 12:11:24;;;;;;;2.27;2.10;;;;;;;;;;5092834;28;20429;-59
2023/08/02 12:13:50;;;;;;;2.47;2.33;;;;;;;;;;5093004;28;20498;-57
2023/08/02 12:16:16;;;;;;;2.60;2.40;;;;;;;;;;5093144;28;20419;-59
2023/08/02 12:19:09;;;;;;;3.10;2.00;;;;;;;;;;5091491;28;20447;-59
2023/08/02 12:21:37;;;;;;;10.77;2.37;;;;;;;;;;5088098;28;20426;-58
2023/08/02 12:24:16;;;;;;;2.13;2.03;;;;;;;;;;5092585;28;20472;-59
2023/08/02 12:26:42;;;;;;;2.13;2.03;;;;;;;;;;5092711;28;20413;-58
2023/08/02 12:29:08;;;;;;;2.27;2.17;;;;;;;;;;5092640;28;20990;-58
2023/08/02 12:31:41;;;;;;;5.30;2.27;;;;;;;;;;5092732;28;20424;-57
2023/08/02 12:34:07;;;;;;;3.57;2.40;;;;;;;;;;5092530;28;20979;-59
2023/08/02 12:36:33;;;;;;;7.50;6.80;;;;;;;;;;5092293;28;20405;-59
2023/08/02 12:39:02;;;;;;;3.57;2.30;;;;;;;;;;5092484;28;20429;-58
2023/08/02 12:41:28;;;;;;;2.10;2.00;;;;;;;;;;5091850;28;20425;-59
2023/08/02 12:43:56;;;;;;;5.20;2.10;;;;;;;;;;5092103;28;20436;-59
2023/08/02 12:46:23;;;;;;;2.77;1.93;;;;;;;;;;5092243;28;20420;-58
2023/08/02 12:48:49;;;;;;;2.30;2.20;;;;;;;;;;5091854;28;20533;-58
2023/08/02 12:51:16;;;;;;;2.70;2.00;;;;;;;;;;5092355;28;20458;-59
2023/08/02 12:53:42;;;;;;;4.73;2.30;;;;;;;;;;5091743;28;20462;-58
2023/08/02 12:56:08;;;;;;;3.57;2.43;;;;;;;;;;5091818;28;20423;-59
2023/08/02 12:58:36;;;;;;;3.77;2.10;;;;;;;;;;5092570;28;20804;-59
2023/08/02 13:01:02;;;;;;;2.77;1.93;;;;;;;;;;5091956;28;20490;-59
2023/08/02 13:03:31;;;;;;;2.30;2.20;;;;;;;;;;5092309;28;20477;-58
2023/08/02 13:06:00;;;;;;;1.77;1.70;;;;;;;;;;5092379;28;20461;-58
2023/08/02 13:08:26;;;;;;;3.90;2.70;;;;;;;;;;5092097;28;20521;-59
2023/08/02 13:10:52;;;;;;;2.50;2.20;;;;;;;;;;5092264;28;20409;-59
2023/08/02 13:13:18;;;;;;;1.97;1.97;;;;;;;;;;5092153;28;20475;-59
2023/08/02 13:15:45;;;;;;;1.80;1.80;;;;;;;;;;5092367;28;20416;-59
2023/08/02 13:18:13;;;;;;;2.40;2.20;;;;;;;;;;5092189;28;20440;-59
2023/08/02 13:20:43;;;;;;;5.70;2.00;;;;;;;;;;5091814;28;20442;-59
2023/08/02 13:23:09;;;;;;;1.93;1.93;;;;;;;;;;5092144;28;20884;-59
2023/08/02 13:25:35;;;;;;;3.10;2.20;;;;;;;;;;5091617;28;20755;-59
2023/08/02 13:28:05;;;;;;;2.97;2.27;;;;;;;;;;5091862;28;20413;-58
2023/08/02 13:30:34;;;;;;;3.90;2.30;;;;;;;;;;5091946;28;20428;-58
2023/08/02 13:33:00;;;;;;;2.10;2.00;;;;;;;;;;5091610;28;21028;-58
2023/08/02 13:35:26;;;;;;;2.03;1.60;;;;;;;;;;5091980;28;20959;-59
2023/08/02 13:37:55;;;;;;;1.67;1.57;;;;;;;;;;5092047;28;20429;-58
2023/08/02 13:40:23;;;;;;;5.03;2.23;;;;;;;;;;5090738;28;20524;-58
2023/08/02 13:42:49;;;;;;;3.57;1.70;;;;;;;;;;5091837;28;20763;-59
2023/08/02 13:45:15;;;;;;;2.43;1.93;;;;;;;;;;5091764;28;20439;-57
2023/08/02 13:47:41;;;;;;;2.40;2.23;;;;;;;;;;5091918;28;20477;-59
2023/08/02 13:50:07;;;;;;;1.80;1.80;;;;;;;;;;5094015;28;20511;-58
2023/08/02 13:52:33;;;;;;;2.40;2.27;;;;;;;;;;5094995;28;20890;-58
2023/08/02 13:55:00;;;;;;;1.77;1.70;;;;;;;;;;5095500;28;20457;-58
2023/08/02 13:57:26;;;;;;;1.67;1.63;;;;;;;;;;5095384;28;20470;-59
2023/08/02 13:59:52;;;;;;;1.97;1.97;;;;;;;;;;5095281;28;20425;-59
2023/08/02 14:02:18;;;;;;;2.10;2.00;;;;;;;;;;5095214;28;20926;-58
2023/08/02 14:04:44;;;;;;;2.73;2.20;;;;;;;;;;5094131;28;20440;-56
2023/08/02 14:07:11;;;;;;;2.83;2.50;;;;;;;;;;5095029;28;20488;-59
2023/08/02 14:09:39;;;;;;;1.90;1.80;;;;;;;;;;5094987;28;20416;-57
2023/08/02 14:12:05;;;;;;;2.37;2.17;;;;;;;;;;5094982;28;21017;-58
2023/08/02 14:14:31;;;;;;;2.27;2.17;;;;;;;;;;5094793;28;20508;-58
2023/08/02 14:16:59;;;;;;;2.20;2.07;;;;;;;;;;5095232;28;20439;-58
2023/08/02 14:19:25;;;;;;;2.40;1.97;;;;;;;;;;5094877;28;20483;-58
2023/08/02 14:21:51;;;;;;;5.20;2.60;;;;;;;;;;5094511;28;20414;-58
2023/08/02 14:24:17;;;;;;;2.50;2.30;;;;;;;;;;5094544;28;20497;-58
2023/08/02 14:26:43;;;;;;;4.60;4.20;;;;;;;;;;5094595;28;20895;-57
2023/08/02 14:29:09;;;;;;;2.77;2.50;;;;;;;;;;5094642;28;20433;-58
2023/08/02 14:31:35;;;;;;;2.53;2.43;;;;;;;;;;5094931;28;20419;-58
2023/08/02 14:34:01;;;;;;;3.33;3.07;;;;;;;;;;5094630;28;20469;-58
2023/08/02 14:36:32;;;;;;;3.13;2.60;;;;;;;;;;5094498;28;20547;-59
2023/08/02 14:38:58;;;;;;;3.70;2.63;;;;;;;;;;5094722;28;20857;-57
2023/08/02 14:41:24;;;;;;;2.50;2.20;;;;;;;;;;5094670;28;20479;-57
2023/08/02 14:43:50;;;;;;;2.50;2.40;;;;;;;;;;5094455;28;20789;-57